Time;durP1;ratioP1;P1;durP2;ratioP2;P2;SDS_P1;SDS_P2;PMS_P1;PMS_P2;Temp;Humidity;BMP_temperature;BMP_pressure;BME280_temperature;BME280_humidity;BME280_pressure;Samples;Min_cycle;Max_cycle;Signal;HPM_P1;HPM_P2
2022/02/26 00:01:41;;;;;;;17.98;7.22;;;0.20;99.90;;;;;;5097742;28;20346;-84
2022/02/26 00:04:28;;;;;;;15.30;6.75;;;0.20;99.90;;;;;;5100041;28;20044;-84
2022/02/26 00:07:16;;;;;;;15.20;7.97;;;0.20;99.90;;;;;;5092612;28;20113;-84
2022/02/26 00:10:04;;;;;;;19.98;6.97;;;0.20;99.90;;;;;;5098294;28;20139;-84
2022/02/26 00:12:54;;;;;;;22.85;8.13;;;0.30;99.90;;;;;;5079808;28;20048;-83
2022/02/26 00:15:43;;;;;;;18.15;7.13;;;0.30;99.90;;;;;;5096809;28;20048;-81
2022/02/26 00:18:31;;;;;;;13.93;6.90;;;0.30;99.90;;;;;;5100820;28;20051;-81
2022/02/26 00:21:18;;;;;;;17.25;6.78;;;0.30;99.90;;;;;;5106842;28;20089;-81
2022/02/26 00:24:08;;;;;;;18.23;7.43;;;0.20;99.90;;;;;;5090438;28;20140;-82
2022/02/26 00:26:55;;;;;;;18.08;6.72;;;0.10;99.90;;;;;;5104722;28;20081;-81
2022/02/26 00:29:42;;;;;;;17.02;6.82;;;0.00;99.90;;;;;;5108677;28;20123;-81
2022/02/26 00:32:30;;;;;;;16.98;6.90;;;0.00;99.90;;;;;;5105336;28;20434;-82
2022/02/26 00:35:19;;;;;;;19.00;7.60;;;-0.10;99.90;;;;;;5096142;28;20119;-82
2022/02/26 00:38:06;;;;;;;19.92;6.70;;;-0.10;99.90;;;;;;5097137;28;20129;-81
2022/02/26 00:40:56;;;;;;;18.98;6.63;;;-0.20;99.90;;;;;;5094324;28;20101;-81
2022/02/26 00:43:44;;;;;;;22.30;7.57;;;-0.20;99.90;;;;;;5104435;28;20047;-81
2022/02/26 00:46:31;;;;;;;20.95;7.75;;;-0.10;99.90;;;;;;5100877;28;20048;-82
2022/02/26 00:52:29;;;;;;;26.42;7.90;;;0.10;99.90;;;;;;5104636;28;20091;-82
2022/02/26 00:55:16;;;;;;;20.60;7.82;;;0.30;99.90;;;;;;5106546;28;20146;-80
2022/02/26 00:58:06;;;;;;;27.40;8.90;;;0.40;99.90;;;;;;5105817;28;20036;-81
2022/02/26 01:01:19;;;;;;;22.13;7.80;;;0.50;99.90;;;;;;5089402;28;20452;-81
2022/02/26 01:04:08;;;;;;;24.77;7.40;;;0.60;99.90;;;;;;5104529;28;20464;-80
2022/02/26 01:06:57;;;;;;;21.05;7.80;;;0.70;99.90;;;;;;5091981;28;20094;-81
2022/02/26 01:09:45;;;;;;;22.95;7.40;;;0.80;99.90;;;;;;5105691;28;20036;-81
2022/02/26 01:12:32;;;;;;;18.42;7.07;;;0.80;99.90;;;;;;5101533;28;20123;-81
2022/02/26 01:15:19;;;;;;;23.23;7.35;;;0.90;99.90;;;;;;5109764;28;20055;-82
2022/02/26 01:18:06;;;;;;;22.83;7.32;;;0.90;99.90;;;;;;5088749;28;20123;-80
2022/02/26 01:20:54;;;;;;;18.77;7.28;;;0.80;99.90;;;;;;5108360;28;20044;-80
2022/02/26 01:23:41;;;;;;;25.10;8.13;;;0.80;99.90;;;;;;5107107;28;20061;-81
2022/02/26 01:26:28;;;;;;;19.88;7.25;;;0.80;99.90;;;;;;5099517;28;20109;-80
2022/02/26 01:29:18;;;;;;;25.50;7.70;;;0.80;99.90;;;;;;5085020;28;20047;-81
2022/02/26 01:32:07;;;;;;;20.52;8.48;;;0.80;99.90;;;;;;5103636;28;20120;-81
2022/02/26 01:34:57;;;;;;;17.75;6.53;;;0.90;99.90;;;;;;5096317;28;20416;-82
2022/02/26 01:37:46;;;;;;;25.23;6.65;;;0.90;99.90;;;;;;5099070;28;20107;-81
2022/02/26 01:40:38;;;;;;;18.15;6.55;;;1.00;99.90;;;;;;5093477;28;20128;-81
2022/02/26 01:43:29;;;;;;;23.65;6.57;;;1.00;99.90;;;;;;5108521;28;20412;-83
2022/02/26 01:46:16;;;;;;;16.45;6.05;;;1.00;99.90;;;;;;5101247;28;20159;-81
2022/02/26 01:49:09;;;;;;;21.88;6.85;;;1.00;99.90;;;;;;5097202;28;20115;-82
2022/02/26 01:51:56;;;;;;;22.13;6.20;;;1.00;99.90;;;;;;5096742;28;20205;-81
2022/02/26 01:54:47;;;;;;;19.63;6.53;;;1.00;99.90;;;;;;5097430;28;20115;-82
2022/02/26 01:57:37;;;;;;;22.80;6.45;;;1.10;99.90;;;;;;5092372;28;20164;-81
2022/02/26 02:00:26;;;;;;;17.10;6.28;;;1.10;99.90;;;;;;5080261;28;20108;-82
2022/02/26 02:03:14;;;;;;;20.13;6.28;;;1.10;99.90;;;;;;5095005;28;20051;-82
2022/02/26 02:06:07;;;;;;;16.73;7.07;;;1.10;99.90;;;;;;5096851;28;20055;-81
2022/02/26 02:08:55;;;;;;;21.58;6.53;;;1.10;99.90;;;;;;5094460;28;20037;-82
2022/02/26 02:11:42;;;;;;;19.77;6.80;;;1.10;99.90;;;;;;5099995;28;20052;-83
2022/02/26 02:14:31;;;;;;;23.70;7.10;;;1.10;99.90;;;;;;5097804;28;20119;-82
2022/02/26 02:17:26;;;;;;;22.75;7.20;;;1.10;99.90;;;;;;5091278;28;20040;-81
2022/02/26 02:20:14;;;;;;;17.60;7.00;;;1.00;99.90;;;;;;5083288;27;20172;-80
2022/02/26 02:23:01;;;;;;;21.20;7.05;;;1.00;99.90;;;;;;5093893;28;20420;-82
2022/02/26 02:25:53;;;;;;;19.77;6.70;;;0.90;99.90;;;;;;5081602;28;20093;-82
2022/02/26 02:28:40;;;;;;;20.55;6.32;;;0.90;99.90;;;;;;5103572;28;20195;-81
2022/02/26 02:31:30;;;;;;;20.20;7.05;;;0.90;99.90;;;;;;5081530;28;20067;-82
2022/02/26 02:34:19;;;;;;;22.70;6.50;;;0.90;99.90;;;;;;5087545;28;20057;-81
2022/02/26 02:37:10;;;;;;;19.23;7.20;;;0.90;99.90;;;;;;5095639;28;20036;-80
2022/02/26 02:39:57;;;;;;;20.75;7.32;;;0.90;99.90;;;;;;5101786;28;20119;-81
2022/02/26 02:42:49;;;;;;;22.58;7.00;;;0.90;99.90;;;;;;5093884;28;20524;-81
2022/02/26 02:45:37;;;;;;;22.90;7.68;;;0.90;99.90;;;;;;5086769;28;20212;-83
2022/02/26 02:48:42;;;;;;;20.45;7.07;;;1.00;99.90;;;;;;5096537;28;20044;-81
2022/02/26 02:51:29;;;;;;;29.92;7.50;;;1.00;99.90;;;;;;5109811;28;20123;-82
2022/02/26 02:54:25;;;;;;;26.50;7.50;;;1.00;99.90;;;;;;5093390;28;20059;-82
2022/02/26 02:57:15;;;;;;;23.42;7.30;;;1.10;99.90;;;;;;5082530;28;20174;-82
2022/02/26 03:00:09;;;;;;;18.08;6.70;;;1.00;99.90;;;;;;5079553;28;20440;-82
2022/02/26 03:02:56;;;;;;;19.23;7.45;;;1.10;99.90;;;;;;5100411;28;20040;-81
2022/02/26 03:05:49;;;;;;;20.40;7.18;;;1.10;99.90;;;;;;5100347;28;20035;-81
2022/02/26 03:08:36;;;;;;;21.48;7.35;;;1.00;99.90;;;;;;5096035;28;20044;-81
2022/02/26 03:11:31;;;;;;;22.25;7.05;;;1.00;99.90;;;;;;5097308;28;20183;-83
2022/02/26 03:14:18;;;;;;;23.02;8.43;;;1.00;99.90;;;;;;5097619;28;20130;-82
2022/02/26 03:17:14;;;;;;;18.58;8.38;;;1.00;99.90;;;;;;5104486;28;20089;-82
2022/02/26 03:20:02;;;;;;;20.85;8.20;;;1.00;99.90;;;;;;5096017;28;20192;-82
2022/02/26 03:23:25;;;;;;;26.35;8.48;;;1.00;99.90;;;;;;5092854;28;20187;-83
2022/02/26 03:26:30;;;;;;;23.40;8.77;;;1.00;99.90;;;;;;5079913;28;20043;-81
2022/02/26 03:29:17;;;;;;;24.08;8.68;;;1.00;99.90;;;;;;5083220;28;20044;-81
2022/02/26 03:32:38;;;;;;;28.10;8.95;;;1.00;99.90;;;;;;5097126;28;20577;-81
2022/02/26 03:35:26;;;;;;;26.08;8.18;;;1.00;99.90;;;;;;5097051;28;20059;-81
2022/02/26 03:38:16;;;;;;;19.13;8.80;;;1.00;99.90;;;;;;5097494;28;20113;-81
2022/02/26 03:41:14;;;;;;;18.80;8.63;;;1.00;99.90;;;;;;5091505;28;20132;-83
2022/02/26 03:44:05;;;;;;;24.42;9.57;;;1.00;99.90;;;;;;5076291;28;20051;-81
2022/02/26 03:46:59;;;;;;;26.52;8.75;;;1.10;99.90;;;;;;5082877;28;20115;-82
2022/02/26 03:49:47;;;;;;;26.25;8.82;;;1.00;99.90;;;;;;5083004;28;20039;-81
2022/02/26 03:52:35;;;;;;;24.58;9.55;;;1.00;99.90;;;;;;5101155;28;20480;-82
2022/02/26 03:55:25;;;;;;;22.63;9.65;;;1.00;99.90;;;;;;5095366;28;20077;-81
2022/02/26 03:58:23;;;;;;;24.00;10.02;;;1.00;99.90;;;;;;5080756;28;20055;-81
2022/02/26 04:01:11;;;;;;;20.30;9.18;;;1.00;99.90;;;;;;5084928;28;20093;-81
2022/02/26 04:03:58;;;;;;;29.92;9.63;;;1.00;99.90;;;;;;5100315;28;20048;-82
2022/02/26 04:06:46;;;;;;;34.08;10.30;;;1.00;99.90;;;;;;5082342;28;20067;-81
2022/02/26 04:09:36;;;;;;;29.88;10.77;;;1.00;99.90;;;;;;5102272;28;20051;-82
2022/02/26 04:12:23;;;;;;;31.00;10.93;;;1.00;99.90;;;;;;5090544;28;20186;-82
2022/02/26 04:15:10;;;;;;;25.08;10.60;;;1.00;99.90;;;;;;5091821;28;20036;-82
2022/02/26 04:17:57;;;;;;;22.52;10.18;;;0.90;99.90;;;;;;5101027;28;20130;-81
2022/02/26 04:20:47;;;;;;;26.80;11.15;;;0.70;99.90;;;;;;5103532;28;20061;-82
2022/02/26 04:23:34;;;;;;;28.15;11.77;;;0.60;99.90;;;;;;5095268;28;20056;-81
2022/02/26 04:26:22;;;;;;;28.80;11.98;;;0.50;99.90;;;;;;5099269;28;20088;-81
2022/02/26 04:29:09;;;;;;;29.00;13.48;;;0.40;99.90;;;;;;5091396;28;20051;-81
2022/02/26 04:31:56;;;;;;;39.08;15.55;;;0.30;99.90;;;;;;5088781;28;20453;-81
2022/02/26 04:34:44;;;;;;;34.80;14.60;;;0.30;99.90;;;;;;5097005;28;20047;-83
2022/02/26 04:37:31;;;;;;;33.40;15.90;;;0.30;99.90;;;;;;5101287;28;20085;-82
2022/02/26 04:40:20;;;;;;;44.17;16.88;;;0.30;99.90;;;;;;5086073;28;20098;-83
2022/02/26 04:43:08;;;;;;;43.75;17.73;;;0.30;99.90;;;;;;5079917;28;20089;-82
2022/02/26 04:45:55;;;;;;;49.60;19.13;;;0.30;99.90;;;;;;5094903;28;20071;-82
2022/02/26 04:48:42;;;;;;;48.40;18.67;;;0.30;99.90;;;;;;5102243;28;20052;-81
2022/02/26 04:51:32;;;;;;;45.55;19.63;;;0.20;99.90;;;;;;5097882;28;20044;-84
2022/02/26 04:54:19;;;;;;;48.03;19.92;;;0.20;99.90;;;;;;5100120;28;20056;-82
2022/02/26 04:57:07;;;;;;;47.85;19.00;;;0.30;99.90;;;;;;5096209;28;20101;-82
2022/02/26 04:59:56;;;;;;;48.90;18.02;;;0.30;99.90;;;;;;5100360;28;20145;-83
2022/02/26 05:02:43;;;;;;;45.72;17.42;;;0.30;99.90;;;;;;5084300;28;20754;-81
2022/02/26 05:05:31;;;;;;;54.65;18.63;;;0.40;99.90;;;;;;5105081;28;20071;-82
2022/02/26 05:08:20;;;;;;;46.17;17.55;;;0.40;99.90;;;;;;5098746;28;20251;-83
2022/02/26 05:11:07;;;;;;;45.13;16.58;;;0.40;99.90;;;;;;5100520;28;20106;-81
2022/02/26 05:13:54;;;;;;;42.38;17.15;;;0.50;99.90;;;;;;5102708;28;20064;-81
2022/02/26 05:16:43;;;;;;;37.17;15.45;;;0.50;99.90;;;;;;5079696;28;20120;-79
2022/02/26 05:19:31;;;;;;;41.63;15.57;;;0.50;99.90;;;;;;5098658;28;20475;-82
2022/02/26 05:22:18;;;;;;;43.25;15.65;;;0.50;99.90;;;;;;5103765;28;20184;-81
2022/02/26 05:25:10;;;;;;;43.72;15.13;;;0.50;99.90;;;;;;5102139;28;20173;-81
2022/02/26 05:27:57;;;;;;;49.20;15.80;;;0.50;99.90;;;;;;5094879;28;20101;-80
2022/02/26 05:30:44;;;;;;;35.58;14.85;;;0.40;99.90;;;;;;5100162;28;20090;-82
2022/02/26 05:33:33;;;;;;;31.35;14.35;;;0.40;99.90;;;;;;5099262;28;20039;-81
2022/02/26 05:36:20;;;;;;;37.45;14.15;;;0.30;99.90;;;;;;5100418;28;20066;-81
2022/02/26 05:39:09;;;;;;;35.38;14.55;;;0.20;99.90;;;;;;5115490;28;20051;-82
2022/02/26 05:41:56;;;;;;;37.25;14.00;;;0.20;99.90;;;;;;5088676;28;20063;-81
2022/02/26 05:44:43;;;;;;;33.17;15.35;;;0.10;99.90;;;;;;5077708;28;20082;-81
2022/02/26 05:47:31;;;;;;;43.45;15.38;;;0.10;99.90;;;;;;5097373;28;20055;-81
2022/02/26 05:50:19;;;;;;;41.75;14.57;;;0.10;99.90;;;;;;5092642;28;20058;-81
2022/02/26 05:53:06;;;;;;;40.00;15.40;;;0.20;99.90;;;;;;5082117;28;20043;-82
2022/02/26 05:55:53;;;;;;;53.45;17.10;;;0.20;99.90;;;;;;5103966;28;20147;-82
2022/02/26 05:58:40;;;;;;;38.83;16.38;;;0.20;99.90;;;;;;5095605;28;20123;-82
2022/02/26 06:01:30;;;;;;;47.67;16.20;;;0.30;99.90;;;;;;5094532;28;20048;-82
2022/02/26 06:04:26;;;;;;;34.17;15.57;;;0.30;99.90;;;;;;5102441;28;20057;-80
2022/02/26 06:07:14;;;;;;;41.90;17.00;;;0.30;99.90;;;;;;5084768;28;20131;-83
2022/02/26 06:10:01;;;;;;;43.83;16.38;;;0.40;99.90;;;;;;5079676;28;20111;-82
2022/02/26 06:13:01;;;;;;;45.75;16.65;;;0.40;99.90;;;;;;5093458;28;20051;-79
2022/02/26 06:15:48;;;;;;;39.08;16.95;;;0.30;99.90;;;;;;5089483;28;20245;-81
2022/02/26 06:18:35;;;;;;;42.67;17.83;;;0.30;99.90;;;;;;5099338;28;20117;-81
2022/02/26 06:21:24;;;;;;;46.25;17.85;;;0.30;99.90;;;;;;5096129;28;20478;-81
2022/02/26 06:24:16;;;;;;;44.15;17.67;;;0.30;99.90;;;;;;5091315;28;20478;-83
2022/02/26 06:31:54;;;;;;;50.75;17.73;;;0.30;99.90;;;;;;5105720;28;20036;-86
2022/02/26 06:39:04;;;;;;;44.97;17.70;;;0.40;99.90;;;;;;5094526;28;20124;-83
2022/02/26 06:41:51;;;;;;;59.63;18.35;;;0.50;99.90;;;;;;5093625;28;20040;-82
2022/02/26 06:44:38;;;;;;;45.78;18.80;;;0.50;99.90;;;;;;5105849;28;20055;-83
2022/02/26 06:47:25;;;;;;;47.25;19.20;;;0.50;99.90;;;;;;5081518;28;20036;-84
2022/02/26 06:50:13;;;;;;;42.13;18.75;;;0.60;99.90;;;;;;5087413;28;20229;-85
2022/02/26 06:53:00;;;;;;;49.55;18.15;;;0.70;99.90;;;;;;5094081;28;20071;-84
2022/02/26 06:55:47;;;;;;;53.55;18.80;;;0.80;99.90;;;;;;5097609;28;20044;-85
2022/02/26 06:58:37;;;;;;;46.55;17.25;;;0.90;99.90;;;;;;5097940;28;20108;-85
2022/02/26 07:01:24;;;;;;;45.40;16.17;;;0.90;99.90;;;;;;5103052;28;20114;-84
2022/02/26 07:04:15;;;;;;;39.53;15.48;;;1.00;99.90;;;;;;5086324;28;20047;-84
2022/02/26 07:07:02;;;;;;;44.05;16.70;;;1.10;99.90;;;;;;5103351;28;20093;-82
2022/02/26 07:09:50;;;;;;;36.58;15.10;;;1.10;99.90;;;;;;5097382;28;20137;-83
2022/02/26 07:12:39;;;;;;;34.92;14.23;;;1.10;99.90;;;;;;5096523;28;20461;-82
2022/02/26 07:15:26;;;;;;;34.25;15.20;;;1.20;99.90;;;;;;5096500;28;20065;-82
2022/02/26 07:18:14;;;;;;;37.55;13.82;;;1.30;99.90;;;;;;5099093;28;20059;-83
2022/02/26 07:21:01;;;;;;;34.83;14.25;;;1.30;99.90;;;;;;5102233;28;20422;-83
2022/02/26 07:23:48;;;;;;;36.63;14.25;;;1.30;99.90;;;;;;5083623;28;20056;-83
2022/02/26 07:26:39;;;;;;;27.95;14.38;;;1.30;99.90;;;;;;5099556;28;20048;-83
2022/02/26 07:29:26;;;;;;;35.25;13.88;;;1.40;99.90;;;;;;5103888;28;20058;-84
2022/02/26 07:32:14;;;;;;;36.05;12.20;;;1.50;99.90;;;;;;5084211;28;20039;-83
2022/02/26 07:35:11;;;;;;;28.30;12.93;;;1.60;99.90;;;;;;5081217;28;20039;-83
2022/02/26 07:37:58;;;;;;;31.60;13.00;;;1.70;99.90;;;;;;5102339;28;20039;-82
2022/02/26 07:40:46;;;;;;;25.33;11.65;;;1.90;99.90;;;;;;5100001;28;20058;-82
2022/02/26 07:43:34;;;;;;;28.95;10.88;;;2.10;99.90;;;;;;5077443;28;20161;-82
2022/02/26 07:46:23;;;;;;;29.10;11.35;;;2.20;99.90;;;;;;5088667;28;20074;-81
2022/02/26 07:49:19;;;;;;;29.52;11.02;;;2.10;99.90;;;;;;5102210;28;20036;-82
2022/02/26 07:53:15;;;;;;;35.22;12.23;;;2.10;99.90;;;;;;5086308;28;20059;-83
2022/02/26 07:56:40;;;;;;;30.80;12.02;;;2.10;99.90;;;;;;5047541;28;20053;-84
2022/02/26 08:06:58;;;;;;;24.02;11.25;;;2.50;99.90;;;;;;4989838;28;20031;-81
2022/02/26 08:10:04;;;;;;;22.15;11.15;;;2.70;99.90;;;;;;4985288;28;20121;-82
2022/02/26 08:17:27;;;;;;;28.05;10.18;;;2.90;99.90;;;;;;4923270;29;21505;-83
2022/02/26 08:24:45;;;;;;;24.98;9.73;;;3.10;99.90;;;;;;4934482;29;20043;-81
2022/02/26 08:27:33;;;;;;;24.58;9.20;;;3.00;99.90;;;;;;5042833;28;20051;-81
2022/02/26 08:30:21;;;;;;;33.05;9.85;;;3.00;99.90;;;;;;5091532;28;20083;-83
2022/02/26 08:33:08;;;;;;;26.75;9.95;;;3.10;99.90;;;;;;5103750;28;20322;-83
2022/02/26 08:35:55;;;;;;;20.52;8.20;;;3.10;99.90;;;;;;5102537;28;20101;-83
2022/02/26 08:38:43;;;;;;;20.50;8.82;;;3.20;99.90;;;;;;5089752;28;20061;-84
2022/02/26 08:41:30;;;;;;;31.65;8.00;;;3.20;99.90;;;;;;5101600;28;20560;-83
2022/02/26 08:44:17;;;;;;;28.15;8.32;;;3.20;99.90;;;;;;5097803;28;20460;-83
2022/02/26 08:47:05;;;;;;;20.88;7.35;;;3.30;99.90;;;;;;5112397;28;20139;-83
2022/02/26 08:49:52;;;;;;;18.27;7.40;;;3.40;99.90;;;;;;5101525;28;20052;-83
2022/02/26 08:52:40;;;;;;;17.63;7.60;;;3.60;99.90;;;;;;5101629;28;20040;-83
2022/02/26 08:55:27;;;;;;;18.35;7.40;;;3.90;99.90;;;;;;5096166;28;20082;-81
2022/02/26 08:58:15;;;;;;;15.27;6.35;;;4.20;99.90;;;;;;5093739;28;20120;-83
2022/02/26 09:01:03;;;;;;;21.63;5.93;;;4.60;99.90;;;;;;5099353;28;20058;-83
2022/02/26 09:03:51;;;;;;;17.45;5.93;;;5.00;99.90;;;;;;5103140;28;20044;-83
2022/02/26 09:06:38;;;;;;;18.48;6.90;;;5.20;99.90;;;;;;5095005;28;20052;-83
2022/02/26 09:09:28;;;;;;;21.15;7.35;;;5.30;99.90;;;;;;5094938;28;20059;-82
2022/02/26 09:12:16;;;;;;;24.20;6.25;;;5.20;99.90;;;;;;5106782;28;20071;-84
2022/02/26 09:15:07;;;;;;;19.02;6.40;;;5.50;99.90;;;;;;5093297;28;20525;-85
2022/02/26 09:17:55;;;;;;;22.77;6.97;;;6.00;99.90;;;;;;5079244;28;20043;-85
2022/02/26 09:20:44;;;;;;;17.55;4.90;;;6.10;99.90;;;;;;5090250;28;20056;-84
2022/02/26 09:23:35;;;;;;;15.10;5.18;;;6.20;99.90;;;;;;5088396;28;20051;-84
2022/02/26 09:26:23;;;;;;;12.80;5.20;;;6.30;99.90;;;;;;5112314;28;20043;-84
2022/02/26 09:29:10;;;;;;;11.05;4.13;;;7.10;99.90;;;;;;5082257;28;20070;-86
2022/02/26 09:31:57;;;;;;;24.25;4.40;;;8.00;98.30;;;;;;5106574;28;20077;-85
2022/02/26 09:34:44;;;;;;;16.30;4.78;;;7.80;92.80;;;;;;5112935;28;20384;-83
2022/02/26 09:37:32;;;;;;;9.40;4.13;;;7.30;93.00;;;;;;5099118;28;20456;-84
2022/02/26 09:40:19;;;;;;;8.68;2.50;;;7.10;92.80;;;;;;5099329;28;20075;-83
2022/02/26 09:43:07;;;;;;;12.18;3.20;;;6.80;85.10;;;;;;5094592;28;20048;-83
2022/02/26 09:45:57;;;;;;;13.45;4.10;;;6.80;89.80;;;;;;5112716;27;20210;-83
2022/02/26 09:48:45;;;;;;;17.10;4.15;;;6.50;91.20;;;;;;5092632;28;20051;-83
2022/02/26 09:51:34;;;;;;;9.90;3.50;;;6.10;92.30;;;;;;5091520;28;20098;-84
2022/02/26 09:54:21;;;;;;;14.73;4.10;;;5.50;92.70;;;;;;5081373;28;20484;-83
2022/02/26 09:57:31;;;;;;;19.60;4.20;;;4.90;94.00;;;;;;5097904;27;20039;-83
2022/02/26 10:00:29;;;;;;;20.38;6.00;;;4.50;95.80;;;;;;5097704;28;20414;-84
2022/02/26 10:03:49;;;;;;;;;;;;;;;;;;;;;
2022/02/26 10:07:37;;;;;;;12.65;4.93;;;4.40;99.90;;;;;;5099658;28;20036;-84
2022/02/26 10:15:38;;;;;;;;;;;;;;;;;;;;;
2022/02/26 10:19:55;;;;;;;5.00;2.70;;;11.10;69.20;;;;;;5095218;28;20073;-82
2022/02/26 10:23:08;;;;;;;14.27;3.90;;;11.70;60.30;;;;;;5004062;28;20050;-82
2022/02/26 10:26:55;;;;;;;7.05;2.53;;;12.30;61.10;;;;;;5027472;28;20101;-82
2022/02/26 10:29:55;;;;;;;8.52;3.17;;;12.50;55.30;;;;;;5090837;28;20129;-80
2022/02/26 10:32:52;;;;;;;;;;;;;;;;;;;;;
2022/02/26 10:35:57;;;;;;;12.23;4.10;;;9.90;59.40;;;;;;5102533;28;20047;-80
2022/02/26 10:38:52;;;;;;;18.33;3.45;;;8.20;62.60;;;;;;5083050;28;20044;-81
2022/02/26 10:41:53;;;;;;;12.90;3.72;;;7.10;60.90;;;;;;5078708;28;20485;-81
2022/02/26 10:44:44;;;;;;;11.52;3.42;;;6.70;63.90;;;;;;5089979;28;20040;-84
2022/02/26 10:47:36;;;;;;;8.73;2.92;;;6.20;59.30;;;;;;5110430;28;20050;-85
2022/02/26 10:50:26;;;;;;;9.18;2.97;;;5.70;57.10;;;;;;5111118;28;20044;-84
2022/02/26 10:53:16;;;;;;;11.15;3.45;;;5.40;56.80;;;;;;5096823;28;20077;-84
2022/02/26 10:56:05;;;;;;;15.85;3.90;;;6.50;45.30;;;;;;5101037;28;20048;-85
2022/02/26 10:58:52;;;;;;;6.45;2.53;;;8.90;52.40;;;;;;5081885;28;20547;-85
2022/02/26 11:01:39;;;;;;;9.55;2.78;;;11.00;55.90;;;;;;5096362;28;20130;-85
2022/02/26 11:04:27;;;;;;;9.65;2.95;;;11.30;54.70;;;;;;5097565;28;20048;-85
2022/02/26 11:07:15;;;;;;;11.30;3.47;;;10.70;55.00;;;;;;5093779;28;20357;-85
2022/02/26 11:10:07;;;;;;;15.32;3.08;;;11.00;58.30;;;;;;5096854;28;20152;-85
2022/02/26 11:12:56;;;;;;;12.70;3.30;;;11.70;56.40;;;;;;5085468;28;20124;-85
2022/02/26 11:15:48;;;;;;;13.70;3.30;;;12.50;54.90;;;;;;5078501;28;20051;-85
2022/02/26 11:18:47;;;;;;;8.80;2.38;;;14.70;50.00;;;;;;5096200;28;20040;-85
2022/02/26 11:21:35;;;;;;;8.48;2.92;;;14.00;47.60;;;;;;5099412;28;20044;-85
2022/02/26 11:24:23;;;;;;;11.88;3.45;;;13.00;49.90;;;;;;5100022;28;20050;-85
2022/02/26 11:27:10;;;;;;;9.57;3.17;;;11.50;52.10;;;;;;5082089;28;20040;-83
2022/02/26 11:30:00;;;;;;;7.80;3.13;;;10.10;55.10;;;;;;5096628;28;20200;-85
2022/02/26 11:32:48;;;;;;;12.00;3.05;;;9.30;57.70;;;;;;5094820;28;20189;-85
2022/02/26 11:35:37;;;;;;;12.23;3.22;;;8.80;59.30;;;;;;5093222;28;20579;-83
2022/02/26 11:38:34;;;;;;;11.18;3.13;;;8.20;59.40;;;;;;5097218;28;20548;-83
2022/02/26 11:41:44;;;;;;;8.10;2.65;;;8.10;61.10;;;;;;5093440;28;20032;-84
2022/02/26 11:44:46;;;;;;;12.60;2.97;;;8.20;61.50;;;;;;5098501;28;20052;-85
2022/02/26 11:47:38;;;;;;;13.63;2.80;;;8.50;60.20;;;;;;5083298;28;20040;-85
2022/02/26 11:50:43;;;;;;;12.48;3.17;;;8.40;60.90;;;;;;5087465;28;20152;-84
2022/02/26 11:53:58;;;;;;;8.35;2.70;;;9.10;59.50;;;;;;5097991;28;20480;-86
2022/02/26 11:56:57;;;;;;;15.30;2.50;;;9.10;57.70;;;;;;5094254;28;20116;-86
2022/02/26 11:59:47;;;;;;;9.60;2.60;;;9.10;56.80;;;;;;5100175;28;20456;-87
2022/02/26 12:02:36;;;;;;;14.07;3.22;;;8.60;57.40;;;;;;5101897;28;20048;-84
2022/02/26 12:05:25;;;;;;;9.25;2.75;;;7.90;58.70;;;;;;5098905;28;20063;-85
2022/02/26 12:08:20;;;;;;;9.10;2.78;;;7.90;60.80;;;;;;5100225;28;20135;-84
2022/02/26 12:11:13;;;;;;;9.65;2.92;;;9.10;59.60;;;;;;5076683;28;20071;-83
2022/02/26 12:14:00;;;;;;;;;;;10.50;55.90;;;;;;5095857;28;20039;-84
2022/02/26 12:17:10;;;;;;;9.40;2.67;;;11.60;52.10;;;;;;5081553;28;19939;-86
2022/02/26 12:19:58;;;;;;;9.32;2.30;;;12.50;50.90;;;;;;5086729;28;20160;-86
2022/02/26 12:22:47;;;;;;;12.40;2.70;;;12.70;50.40;;;;;;5100430;28;20109;-85
2022/02/26 12:25:44;;;;;;;11.73;2.97;;;13.30;47.60;;;;;;5091048;28;20100;-86
2022/02/26 12:28:31;;;;;;;7.65;2.20;;;13.10;46.30;;;;;;5102116;28;20071;-84
2022/02/26 12:31:23;;;;;;;10.88;2.67;;;13.80;47.60;;;;;;5089587;28;20039;-83
2022/02/26 12:34:18;;;;;;;9.73;2.37;;;15.20;42.70;;;;;;5102706;28;20040;-86
2022/02/26 12:37:11;;;;;;;8.02;2.20;;;14.90;41.50;;;;;;5104853;28;20048;-87
2022/02/26 12:40:04;;;;;;;11.23;2.45;;;13.30;44.60;;;;;;5096418;28;20064;-83
2022/02/26 12:42:52;;;;;;;9.00;2.53;;;11.20;48.60;;;;;;5104037;28;20495;-84
2022/02/26 12:45:47;;;;;;;8.98;2.67;;;9.80;51.90;;;;;;5089611;28;20052;-81
2022/02/26 12:48:37;;;;;;;11.30;3.47;;;9.70;54.10;;;;;;5087376;28;20056;-82
2022/02/26 12:51:33;;;;;;;12.07;2.67;;;10.60;51.70;;;;;;5084544;28;20051;-84
2022/02/26 12:54:34;;;;;;;9.20;3.08;;;10.10;51.50;;;;;;5096643;28;20047;-83
2022/02/26 12:57:22;;;;;;;9.98;2.75;;;9.10;52.90;;;;;;5097353;28;20131;-84
2022/02/26 13:00:14;;;;;;;17.50;3.28;;;8.10;55.90;;;;;;5088779;28;20121;-81
2022/02/26 13:03:04;;;;;;;11.70;2.65;;;7.30;58.40;;;;;;5084311;28;20506;-83
2022/02/26 13:06:04;;;;;;;10.93;3.55;;;7.30;59.90;;;;;;5090858;28;20044;-82
2022/02/26 13:08:51;;;;;;;7.85;2.45;;;7.30;60.60;;;;;;5100559;28;20040;-82
2022/02/26 13:11:50;;;;;;;9.23;2.70;;;8.90;57.50;;;;;;5109984;28;20112;-82
2022/02/26 13:14:37;;;;;;;9.60;2.58;;;10.90;52.20;;;;;;5098048;28;20044;-81
2022/02/26 13:17:29;;;;;;;10.32;2.55;;;11.90;49.00;;;;;;5100288;28;20086;-82
2022/02/26 13:20:23;;;;;;;7.95;2.78;;;12.20;47.00;;;;;;5083495;28;20097;-81
2022/02/26 13:23:12;;;;;;;6.32;2.08;;;12.10;46.80;;;;;;5106082;28;20074;-82
2022/02/26 13:25:59;;;;;;;9.18;2.28;;;12.60;46.60;;;;;;5096848;28;20052;-84
2022/02/26 13:28:46;;;;;;;9.75;2.50;;;13.10;46.70;;;;;;5107715;28;20184;-85
2022/02/26 13:31:39;;;;;;;13.52;2.95;;;13.40;44.40;;;;;;5094865;28;20090;-83
2022/02/26 13:34:27;;;;;;;10.68;2.40;;;13.30;44.70;;;;;;5108860;28;20044;-85
2022/02/26 13:37:14;;;;;;;12.05;3.08;;;13.20;44.10;;;;;;5089528;28;20120;-84
2022/02/26 13:40:02;;;;;;;10.18;2.88;;;13.40;44.70;;;;;;5098849;28;20051;-81
2022/02/26 13:43:02;;;;;;;8.27;2.38;;;13.90;42.70;;;;;;5083504;28;20384;-83
2022/02/26 13:45:51;;;;;;;10.98;2.40;;;15.10;42.40;;;;;;5097059;28;20109;-83
2022/02/26 13:48:44;;;;;;;7.45;2.10;;;16.80;37.70;;;;;;5103282;28;20138;-82
2022/02/26 13:51:35;;;;;;;9.18;2.35;;;16.00;38.20;;;;;;5078227;28;20442;-82
2022/02/26 13:54:23;;;;;;;6.35;2.38;;;13.30;42.70;;;;;;5090725;28;20121;-81
2022/02/26 13:57:11;;;;;;;12.73;3.15;;;10.90;47.10;;;;;;5100771;28;20067;-81
2022/02/26 14:00:19;;;;;;;12.98;3.08;;;9.20;51.30;;;;;;5085016;28;20132;-82
2022/02/26 14:03:13;;;;;;;10.15;2.42;;;9.60;53.40;;;;;;5092798;28;20429;-81
2022/02/26 14:06:05;;;;;;;6.47;2.38;;;10.40;49.50;;;;;;5103676;28;20039;-81
2022/02/26 14:08:53;;;;;;;12.25;2.47;;;10.80;49.70;;;;;;5100468;28;20368;-82
2022/02/26 14:11:40;;;;;;;14.32;2.45;;;12.00;47.30;;;;;;5086435;28;20050;-83
2022/02/26 14:14:30;;;;;;;11.18;2.28;;;12.00;46.50;;;;;;5097934;28;20063;-84
2022/02/26 14:17:17;;;;;;;11.85;2.38;;;12.30;46.40;;;;;;5095728;28;20047;-84
2022/02/26 14:20:08;;;;;;;14.82;3.00;;;13.50;44.20;;;;;;5090493;28;20517;-84
2022/02/26 14:23:03;;;;;;;12.35;2.65;;;13.70;43.20;;;;;;5102926;28;20046;-84
2022/02/26 14:26:03;;;;;;;6.15;2.33;;;13.30;44.40;;;;;;5099401;28;20068;-83
2022/02/26 14:28:50;;;;;;;11.13;3.13;;;13.60;44.30;;;;;;5091189;28;20127;-84
2022/02/26 14:31:41;;;;;;;10.95;3.03;;;13.10;44.10;;;;;;5119161;27;20080;-83
2022/02/26 14:34:32;;;;;;;9.88;2.88;;;13.30;45.90;;;;;;5100988;28;20044;-85
2022/02/26 14:37:19;;;;;;;7.35;2.95;;;13.80;45.10;;;;;;5108546;28;20092;-85
2022/02/26 14:40:13;;;;;;;9.43;2.92;;;13.40;43.20;;;;;;5106196;28;20063;-85
2022/02/26 14:43:01;;;;;;;8.80;2.45;;;13.00;45.20;;;;;;5081655;28;20063;-83
2022/02/26 14:45:53;;;;;;;8.20;2.53;;;11.90;45.40;;;;;;5099604;28;20164;-82
2022/02/26 14:48:43;;;;;;;9.40;2.90;;;10.10;48.70;;;;;;5096790;28;20055;-81
2022/02/26 14:51:30;;;;;;;12.77;3.13;;;8.90;52.00;;;;;;5092873;28;20130;-80
2022/02/26 14:54:21;;;;;;;12.25;2.90;;;8.30;54.30;;;;;;5092584;28;20095;-83
2022/02/26 14:57:08;;;;;;;12.20;2.83;;;7.90;56.30;;;;;;5093112;28;20120;-83
2022/02/26 14:59:58;;;;;;;11.30;3.17;;;7.50;57.80;;;;;;5103871;28;20108;-83
2022/02/26 15:02:45;;;;;;;16.17;3.30;;;7.30;59.10;;;;;;5099689;28;20063;-83
2022/02/26 15:05:35;;;;;;;14.63;3.47;;;7.00;60.20;;;;;;5087138;28;20071;-82
2022/02/26 15:08:24;;;;;;;13.90;2.92;;;6.70;61.00;;;;;;5104935;28;20048;-82
2022/02/26 15:11:11;;;;;;;13.43;2.70;;;6.10;62.70;;;;;;5101248;28;20115;-82
2022/02/26 15:14:04;;;;;;;15.73;3.38;;;5.60;63.90;;;;;;5094288;28;20676;-81
2022/02/26 15:16:51;;;;;;;13.93;2.90;;;5.40;65.30;;;;;;5099767;28;20048;-81
2022/02/26 15:19:41;;;;;;;11.02;2.92;;;5.20;67.40;;;;;;5097506;28;20039;-81
2022/02/26 15:22:30;;;;;;;11.50;2.97;;;5.10;67.00;;;;;;5104603;28;20130;-81
2022/02/26 15:25:19;;;;;;;16.63;3.47;;;5.10;68.20;;;;;;5088155;28;20063;-82
2022/02/26 15:28:09;;;;;;;14.20;2.70;;;5.10;68.80;;;;;;5091937;28;20044;-83